sensor_id;sensor_type;location;lat;lon;timestamp;P1;durP1;ratioP1;P2;durP2;ratioP2
70715;SDS011;59053;50.832;12.882;2023-02-08T01:48:03;42.67;;;16.05;;
70715;SDS011;59053;50.832;12.882;2023-02-08T02:03:33;39.58;;;15.77;;
70715;SDS011;59053;50.832;12.882;2023-02-08T02:13:42;44.63;;;15.27;;
70715;SDS011;59053;50.832;12.882;2023-02-08T02:44:47;42.85;;;15.82;;
70715;SDS011;59053;50.832;12.882;2023-02-08T02:47:40;43.25;;;15.07;;
70715;SDS011;59053;50.832;12.882;2023-02-08T02:59:45;50.72;;;16.23;;
70715;SDS011;59053;50.832;12.882;2023-02-08T03:02:16;45.15;;;15.32;;
70715;SDS011;59053;50.832;12.882;2023-02-08T03:04:46;48.83;;;16.03;;
70715;SDS011;59053;50.832;12.882;2023-02-08T03:15:13;52.97;;;16.73;;
70715;SDS011;59053;50.832;12.882;2023-02-08T03:21:09;41.42;;;14.57;;
70715;SDS011;59053;50.832;12.882;2023-02-08T03:29:54;39.85;;;14.98;;
70715;SDS011;59053;50.832;12.882;2023-02-08T03:32:35;37.83;;;13.83;;
70715;SDS011;59053;50.832;12.882;2023-02-08T03:35:14;41.47;;;14.73;;
70715;SDS011;59053;50.832;12.882;2023-02-08T03:37:53;49.08;;;14.85;;
70715;SDS011;59053;50.832;12.882;2023-02-08T03:40:38;42.13;;;15.13;;
70715;SDS011;59053;50.832;12.882;2023-02-08T03:43:20;37.13;;;13.73;;
70715;SDS011;59053;50.832;12.882;2023-02-08T03:45:56;43.83;;;13.37;;
70715;SDS011;59053;50.832;12.882;2023-02-08T03:48:31;32.45;;;11.85;;
70715;SDS011;59053;50.832;12.882;2023-02-08T03:51:08;39.10;;;13.52;;
70715;SDS011;59053;50.832;12.882;2023-02-08T03:53:53;47.20;;;14.88;;
70715;SDS011;59053;50.832;12.882;2023-02-08T03:56:21;46.45;;;15.18;;
70715;SDS011;59053;50.832;12.882;2023-02-08T03:59:23;31.37;;;11.63;;
70715;SDS011;59053;50.832;12.882;2023-02-08T04:02:02;49.13;;;15.45;;
70715;SDS011;59053;50.832;12.882;2023-02-08T04:04:49;40.25;;;13.52;;
70715;SDS011;59053;50.832;12.882;2023-02-08T04:07:16;41.13;;;14.63;;
70715;SDS011;59053;50.832;12.882;2023-02-08T04:09:44;40.97;;;14.05;;
70715;SDS011;59053;50.832;12.882;2023-02-08T04:12:18;45.57;;;15.10;;
70715;SDS011;59053;50.832;12.882;2023-02-08T04:14:45;46.47;;;14.73;;
70715;SDS011;59053;50.832;12.882;2023-02-08T04:17:29;43.85;;;15.32;;
70715;SDS011;59053;50.832;12.882;2023-02-08T04:19:59;43.63;;;14.63;;
70715;SDS011;59053;50.832;12.882;2023-02-08T04:22:29;46.38;;;15.48;;
70715;SDS011;59053;50.832;12.882;2023-02-08T04:41:00;36.60;;;14.52;;
70715;SDS011;59053;50.832;12.882;2023-02-08T04:43:29;48.38;;;14.82;;
70715;SDS011;59053;50.832;12.882;2023-02-08T04:52:23;44.77;;;15.43;;
70715;SDS011;59053;50.832;12.882;2023-02-08T04:54:49;44.78;;;15.45;;
70715;SDS011;59053;50.832;12.882;2023-02-08T04:57:16;46.85;;;15.18;;
70715;SDS011;59053;50.832;12.882;2023-02-08T05:00:01;36.42;;;14.13;;
70715;SDS011;59053;50.832;12.882;2023-02-08T06:36:06;31.35;;;11.57;;
70715;SDS011;59053;50.832;12.882;2023-02-08T06:54:32;29.38;;;10.60;;
70715;SDS011;59053;50.832;12.882;2023-02-08T07:09:17;39.85;;;14.10;;
70715;SDS011;59053;50.832;12.882;2023-02-08T08:52:33;58.77;;;18.90;;
70715;SDS011;59053;50.832;12.882;2023-02-08T09:26:50;34.08;;;11.95;;
70715;SDS011;59053;50.832;12.882;2023-02-08T09:29:15;37.43;;;12.30;;
70715;SDS011;59053;50.832;12.882;2023-02-08T09:31:40;38.53;;;12.03;;
70715;SDS011;59053;50.832;12.882;2023-02-08T09:34:06;36.97;;;12.43;;
70715;SDS011;59053;50.832;12.882;2023-02-08T09:36:33;33.27;;;12.07;;
70715;SDS011;59053;50.832;12.882;2023-02-08T09:39:02;35.58;;;12.02;;
70715;SDS011;59053;50.832;12.882;2023-02-08T09:47:16;34.78;;;11.13;;
70715;SDS011;59053;50.832;12.882;2023-02-08T09:49:47;30.58;;;11.23;;
70715;SDS011;59053;50.832;12.882;2023-02-08T09:52:19;38.60;;;12.25;;
70715;SDS011;59053;50.832;12.882;2023-02-08T09:54:49;37.00;;;12.90;;
70715;SDS011;59053;50.832;12.882;2023-02-08T09:57:19;33.80;;;12.18;;
70715;SDS011;59053;50.832;12.882;2023-02-08T09:59:55;31.88;;;10.93;;
70715;SDS011;59053;50.832;12.882;2023-02-08T10:02:26;33.60;;;11.57;;
70715;SDS011;59053;50.832;12.882;2023-02-08T10:05:03;29.92;;;10.90;;
70715;SDS011;59053;50.832;12.882;2023-02-08T10:07:30;31.13;;;11.30;;
70715;SDS011;59053;50.832;12.882;2023-02-08T10:09:57;29.45;;;10.35;;
70715;SDS011;59053;50.832;12.882;2023-02-08T10:12:35;28.90;;;10.20;;
70715;SDS011;59053;50.832;12.882;2023-02-08T10:15:12;34.67;;;11.02;;
70715;SDS011;59053;50.832;12.882;2023-02-08T10:20:32;33.00;;;11.00;;
70715;SDS011;59053;50.832;12.882;2023-02-08T10:25:51;30.70;;;11.45;;
70715;SDS011;59053;50.832;12.882;2023-02-08T10:28:30;30.33;;;10.88;;
70715;SDS011;59053;50.832;12.882;2023-02-08T10:31:05;32.22;;;10.75;;
70715;SDS011;59053;50.832;12.882;2023-02-08T10:33:36;35.65;;;12.23;;
70715;SDS011;59053;50.832;12.882;2023-02-08T10:36:15;35.28;;;12.40;;
70715;SDS011;59053;50.832;12.882;2023-02-08T10:38:42;34.72;;;11.85;;
70715;SDS011;59053;50.832;12.882;2023-02-08T10:41:08;35.50;;;12.30;;
70715;SDS011;59053;50.832;12.882;2023-02-08T10:43:39;38.53;;;12.65;;
70715;SDS011;59053;50.832;12.882;2023-02-08T10:46:19;39.77;;;12.90;;
70715;SDS011;59053;50.832;12.882;2023-02-08T10:51:20;39.33;;;12.77;;
70715;SDS011;59053;50.832;12.882;2023-02-08T10:53:46;36.67;;;12.70;;
70715;SDS011;59053;50.832;12.882;2023-02-08T10:56:19;35.60;;;12.90;;
70715;SDS011;59053;50.832;12.882;2023-02-08T10:59:13;41.05;;;13.20;;
70715;SDS011;59053;50.832;12.882;2023-02-08T11:01:44;41.95;;;14.77;;
70715;SDS011;59053;50.832;12.882;2023-02-08T11:04:11;42.85;;;13.45;;
70715;SDS011;59053;50.832;12.882;2023-02-08T11:06:38;40.08;;;13.77;;
70715;SDS011;59053;50.832;12.882;2023-02-08T11:09:05;41.03;;;13.68;;
70715;SDS011;59053;50.832;12.882;2023-02-08T11:11:37;42.42;;;14.15;;
70715;SDS011;59053;50.832;12.882;2023-02-08T11:14:05;46.17;;;15.45;;
70715;SDS011;59053;50.832;12.882;2023-02-08T11:16:32;42.22;;;13.18;;
70715;SDS011;59053;50.832;12.882;2023-02-08T11:18:58;41.07;;;13.37;;
70715;SDS011;59053;50.832;12.882;2023-02-08T11:21:30;45.42;;;15.98;;
70715;SDS011;59053;50.832;12.882;2023-02-08T11:24:20;42.80;;;14.97;;
70715;SDS011;59053;50.832;12.882;2023-02-08T11:26:53;45.22;;;14.25;;
70715;SDS011;59053;50.832;12.882;2023-02-08T11:29:27;47.60;;;15.48;;
70715;SDS011;59053;50.832;12.882;2023-02-08T11:34:24;46.67;;;16.00;;
70715;SDS011;59053;50.832;12.882;2023-02-08T11:36:50;46.20;;;14.90;;
70715;SDS011;59053;50.832;12.882;2023-02-08T11:39:24;43.40;;;14.80;;
70715;SDS011;59053;50.832;12.882;2023-02-08T11:41:52;49.25;;;15.90;;
70715;SDS011;59053;50.832;12.882;2023-02-08T11:44:25;40.90;;;14.85;;
70715;SDS011;59053;50.832;12.882;2023-02-08T11:46:56;41.80;;;15.07;;
70715;SDS011;59053;50.832;12.882;2023-02-08T11:49:29;45.65;;;14.35;;
70715;SDS011;59053;50.832;12.882;2023-02-08T11:52:00;41.17;;;14.73;;
70715;SDS011;59053;50.832;12.882;2023-02-08T11:54:36;46.15;;;14.70;;
70715;SDS011;59053;50.832;12.882;2023-02-08T11:57:10;40.90;;;14.13;;
70715;SDS011;59053;50.832;12.882;2023-02-08T11:59:38;45.03;;;14.98;;
70715;SDS011;59053;50.832;12.882;2023-02-08T12:04:55;39.85;;;13.55;;
70715;SDS011;59053;50.832;12.882;2023-02-08T12:15:59;33.23;;;11.50;;
70715;SDS011;59053;50.832;12.882;2023-02-08T12:21:17;31.02;;;10.85;;
70715;SDS011;59053;50.832;12.882;2023-02-08T12:23:52;29.48;;;10.02;;
70715;SDS011;59053;50.832;12.882;2023-02-08T12:26:26;33.47;;;10.90;;
70715;SDS011;59053;50.832;12.882;2023-02-08T12:29:00;32.47;;;12.27;;
70715;SDS011;59053;50.832;12.882;2023-02-08T12:40:42;26.45;;;8.90;;
70715;SDS011;59053;50.832;12.882;2023-02-08T12:51:24;26.73;;;9.00;;
70715;SDS011;59053;50.832;12.882;2023-02-08T12:54:01;28.63;;;8.80;;
70715;SDS011;59053;50.832;12.882;2023-02-08T12:56:29;24.07;;;8.23;;
70715;SDS011;59053;50.832;12.882;2023-02-08T12:59:01;24.67;;;8.85;;
70715;SDS011;59053;50.832;12.882;2023-02-08T13:01:42;25.70;;;8.68;;
70715;SDS011;59053;50.832;12.882;2023-02-08T13:04:10;24.87;;;8.17;;
70715;SDS011;59053;50.832;12.882;2023-02-08T13:06:38;27.70;;;9.60;;
70715;SDS011;59053;50.832;12.882;2023-02-08T13:09:13;26.40;;;8.82;;
70715;SDS011;59053;50.832;12.882;2023-02-08T13:11:49;25.92;;;8.63;;
70715;SDS011;59053;50.832;12.882;2023-02-08T13:14:39;26.80;;;9.20;;
70715;SDS011;59053;50.832;12.882;2023-02-08T13:19:52;24.17;;;7.95;;
70715;SDS011;59053;50.832;12.882;2023-02-08T13:22:20;25.25;;;8.52;;
70715;SDS011;59053;50.832;12.882;2023-02-08T13:24:46;28.48;;;8.95;;
70715;SDS011;59053;50.832;12.882;2023-02-08T13:27:14;27.15;;;9.00;;
70715;SDS011;59053;50.832;12.882;2023-02-08T13:29:42;29.50;;;9.53;;
70715;SDS011;59053;50.832;12.882;2023-02-08T13:32:29;25.13;;;8.80;;
70715;SDS011;59053;50.832;12.882;2023-02-08T13:35:31;23.88;;;8.38;;
70715;SDS011;59053;50.832;12.882;2023-02-08T13:37:56;27.10;;;9.30;;
70715;SDS011;59053;50.832;12.882;2023-02-08T13:40:26;29.50;;;10.15;;
70715;SDS011;59053;50.832;12.882;2023-02-08T13:43:00;25.33;;;9.10;;
70715;SDS011;59053;50.832;12.882;2023-02-08T13:45:30;28.67;;;9.70;;
70715;SDS011;59053;50.832;12.882;2023-02-08T13:48:04;28.58;;;10.27;;
70715;SDS011;59053;50.832;12.882;2023-02-08T13:50:42;27.63;;;9.85;;
70715;SDS011;59053;50.832;12.882;2023-02-08T13:53:09;28.27;;;9.55;;
70715;SDS011;59053;50.832;12.882;2023-02-08T13:55:43;29.37;;;9.40;;
70715;SDS011;59053;50.832;12.882;2023-02-08T13:58:38;27.35;;;9.55;;
70715;SDS011;59053;50.832;12.882;2023-02-08T14:01:16;28.27;;;9.48;;
70715;SDS011;59053;50.832;12.882;2023-02-08T14:06:32;31.33;;;10.50;;
70715;SDS011;59053;50.832;12.882;2023-02-08T14:09:13;27.57;;;9.23;;
70715;SDS011;59053;50.832;12.882;2023-02-08T14:11:53;26.60;;;9.77;;
70715;SDS011;59053;50.832;12.882;2023-02-08T14:14:25;31.88;;;9.88;;
70715;SDS011;59053;50.832;12.882;2023-02-08T14:19:28;30.92;;;9.38;;
70715;SDS011;59053;50.832;12.882;2023-02-08T14:21:58;27.10;;;9.40;;
70715;SDS011;59053;50.832;12.882;2023-02-08T14:24:30;28.50;;;9.50;;
70715;SDS011;59053;50.832;12.882;2023-02-08T14:27:35;27.58;;;9.25;;
70715;SDS011;59053;50.832;12.882;2023-02-08T14:29:56;26.65;;;9.05;;
70715;SDS011;59053;50.832;12.882;2023-02-08T14:32:29;28.42;;;9.40;;
70715;SDS011;59053;50.832;12.882;2023-02-08T14:35:03;34.40;;;10.73;;
70715;SDS011;59053;50.832;12.882;2023-02-08T14:37:32;29.42;;;9.93;;
70715;SDS011;59053;50.832;12.882;2023-02-08T14:50:25;31.67;;;10.13;;
70715;SDS011;59053;50.832;12.882;2023-02-08T14:52:55;32.83;;;10.90;;
70715;SDS011;59053;50.832;12.882;2023-02-08T14:55:24;33.00;;;11.13;;
70715;SDS011;59053;50.832;12.882;2023-02-08T14:57:55;30.33;;;10.77;;
70715;SDS011;59053;50.832;12.882;2023-02-08T15:00:22;32.40;;;11.10;;
70715;SDS011;59053;50.832;12.882;2023-02-08T15:02:49;31.15;;;11.35;;
70715;SDS011;59053;50.832;12.882;2023-02-08T15:05:28;32.00;;;11.37;;
70715;SDS011;59053;50.832;12.882;2023-02-08T15:07:58;29.05;;;10.07;;
70715;SDS011;59053;50.832;12.882;2023-02-08T15:10:24;29.95;;;11.45;;
70715;SDS011;59053;50.832;12.882;2023-02-08T15:12:53;34.60;;;10.68;;
70715;SDS011;59053;50.832;12.882;2023-02-08T15:15:32;35.03;;;11.83;;
70715;SDS011;59053;50.832;12.882;2023-02-08T15:17:59;28.42;;;10.27;;
70715;SDS011;59053;50.832;12.882;2023-02-08T15:20:26;32.45;;;11.73;;
70715;SDS011;59053;50.832;12.882;2023-02-08T15:23:00;30.38;;;10.30;;
70715;SDS011;59053;50.832;12.882;2023-02-08T15:25:33;37.15;;;11.70;;
70715;SDS011;59053;50.832;12.882;2023-02-08T15:28:15;29.67;;;10.87;;
70715;SDS011;59053;50.832;12.882;2023-02-08T15:30:42;33.17;;;11.60;;
70715;SDS011;59053;50.832;12.882;2023-02-08T15:33:08;38.28;;;11.13;;
70715;SDS011;59053;50.832;12.882;2023-02-08T15:35:37;29.30;;;10.70;;
70715;SDS011;59053;50.832;12.882;2023-02-08T15:38:03;35.73;;;11.10;;
70715;SDS011;59053;50.832;12.882;2023-02-08T15:40:30;34.45;;;11.25;;
70715;SDS011;59053;50.832;12.882;2023-02-08T15:43:10;33.33;;;11.02;;
70715;SDS011;59053;50.832;12.882;2023-02-08T15:45:37;33.80;;;11.18;;
70715;SDS011;59053;50.832;12.882;2023-02-08T15:48:04;33.50;;;10.93;;
70715;SDS011;59053;50.832;12.882;2023-02-08T15:50:30;34.53;;;10.77;;
70715;SDS011;59053;50.832;12.882;2023-02-08T15:53:00;36.55;;;11.40;;
70715;SDS011;59053;50.832;12.882;2023-02-08T15:55:29;34.70;;;11.18;;
70715;SDS011;59053;50.832;12.882;2023-02-08T15:58:01;32.67;;;10.77;;
70715;SDS011;59053;50.832;12.882;2023-02-08T16:00:32;32.92;;;11.13;;
70715;SDS011;59053;50.832;12.882;2023-02-08T16:03:06;32.20;;;10.53;;
70715;SDS011;59053;50.832;12.882;2023-02-08T16:05:33;41.13;;;11.70;;
70715;SDS011;59053;50.832;12.882;2023-02-08T16:07:59;33.72;;;11.40;;
70715;SDS011;59053;50.832;12.882;2023-02-08T16:10:33;40.70;;;12.77;;
70715;SDS011;59053;50.832;12.882;2023-02-08T16:13:05;35.28;;;11.65;;
70715;SDS011;59053;50.832;12.882;2023-02-08T16:15:32;36.40;;;11.90;;
70715;SDS011;59053;50.832;12.882;2023-02-08T16:18:00;38.60;;;12.00;;
70715;SDS011;59053;50.832;12.882;2023-02-08T16:20:28;31.60;;;10.60;;
70715;SDS011;59053;50.832;12.882;2023-02-08T16:28:05;34.17;;;11.55;;
70715;SDS011;59053;50.832;12.882;2023-02-08T16:30:57;38.15;;;11.63;;
70715;SDS011;59053;50.832;12.882;2023-02-08T16:33:24;33.88;;;11.10;;
70715;SDS011;59053;50.832;12.882;2023-02-08T16:35:49;35.92;;;12.15;;
70715;SDS011;59053;50.832;12.882;2023-02-08T16:38:19;39.35;;;12.45;;
70715;SDS011;59053;50.832;12.882;2023-02-08T16:40:53;37.37;;;12.23;;
70715;SDS011;59053;50.832;12.882;2023-02-08T16:43:29;36.63;;;11.75;;
70715;SDS011;59053;50.832;12.882;2023-02-08T16:48:40;34.45;;;10.82;;
70715;SDS011;59053;50.832;12.882;2023-02-08T16:51:11;39.25;;;13.70;;
70715;SDS011;59053;50.832;12.882;2023-02-08T16:53:39;40.67;;;12.97;;
70715;SDS011;59053;50.832;12.882;2023-02-08T16:56:06;42.30;;;14.13;;
70715;SDS011;59053;50.832;12.882;2023-02-08T16:58:32;46.28;;;15.05;;
70715;SDS011;59053;50.832;12.882;2023-02-08T17:29:58;51.60;;;15.68;;
70715;SDS011;59053;50.832;12.882;2023-02-08T17:32:29;48.90;;;15.50;;
70715;SDS011;59053;50.832;12.882;2023-02-08T17:43:39;48.50;;;15.25;;
70715;SDS011;59053;50.832;12.882;2023-02-08T19:12:01;51.72;;;15.52;;
70715;SDS011;59053;50.832;12.882;2023-02-08T19:14:47;52.10;;;14.48;;
70715;SDS011;59053;50.832;12.882;2023-02-08T19:17:28;42.95;;;13.63;;
70715;SDS011;59053;50.832;12.882;2023-02-08T19:22:30;45.85;;;13.40;;
70715;SDS011;59053;50.832;12.882;2023-02-08T19:24:58;45.35;;;13.93;;
70715;SDS011;59053;50.832;12.882;2023-02-08T19:27:32;43.27;;;13.60;;
70715;SDS011;59053;50.832;12.882;2023-02-08T19:30:10;45.42;;;14.93;;
70715;SDS011;59053;50.832;12.882;2023-02-08T19:35:22;47.22;;;14.63;;
70715;SDS011;59053;50.832;12.882;2023-02-08T19:37:56;45.35;;;13.95;;
70715;SDS011;59053;50.832;12.882;2023-02-08T22:33:22;15.38;;;4.57;;
